Latest Weather Observations for Tatura

IDV60801

Issued at 8:02 am EST Tuesday 28 June 2016 (issued every 30 minutes, with the page automatically refreshed every 10 minutes)

About weather observations | Map of weather stations | Latest weather observations for VIC | Other Formats
Station Details ID: 081049 Name: TATURA INST SUSTAINABLE AG Lat: -36.44 Lon: 145.27 Height: 114.0 m
Data from the previous 72 hours. | See also: Recent months at Tatura
Date/Time
EST
Temp
°C
App
Temp
°C
Dew
Point
°C
Rel
Hum
%
Delta-T
°C
Wind Press
QNH
hPa
Press
MSL
hPa
Rain since
9am
mm
Dir  Spd
km/h
Gust
km/h
Spd
kts
Gust
kts
28/08:00am 1.9 -0.2 1.8 99 0.0 W 2 7 1 4 - - 0.2
28/07:30am 1.5 -0.3 1.4 99 0.0 CALM 0 0 0 0 - - 0.2
28/07:00am 1.0 -0.8 0.9 99 0.0 CALM 0 0 0 0 - - 0.2
28/06:30am 1.2 -0.6 1.1 99 0.0 CALM 0 0 0 0 - - 0.2
28/06:00am 1.2 -0.6 1.1 99 0.0 CALM 0 0 0 0 - - 0.2
28/05:30am 1.5 -0.3 1.4 99 0.0 CALM 0 0 0 0 - - 0.2
28/05:00am 1.7 0.0 1.6 99 0.0 CALM 0 0 0 0 - - 0.2
28/04:30am 2.2 0.5 2.1 99 0.0 CALM 0 0 0 0 - - 0.2
28/04:00am 2.3 0.7 2.2 99 0.0 CALM 0 0 0 0 - - 0.2
28/03:30am 2.4 0.8 2.3 99 0.0 CALM 0 0 0 0 - - 0.2
28/03:00am 1.9 0.2 1.8 99 0.0 CALM 0 0 0 0 - - 0.2
28/02:30am 1.6 -0.2 1.3 98 0.1 CALM 0 0 0 0 - - 0.2
28/02:00am 1.6 -0.2 1.3 98 0.1 CALM 0 0 0 0 - - 0.2
28/01:30am 2.2 0.5 1.9 98 0.1 CALM 0 0 0 0 - - 0.2
28/01:00am 3.2 1.7 2.9 98 0.1 CALM 0 0 0 0 - - 0.2
28/12:30am 4.2 2.9 3.9 98 0.1 CALM 0 0 0 0 - - 0.2
28/12:00am 4.4 3.1 4.0 97 0.2 CALM 0 0 0 0 - - 0.2
 
Date/Time
EST
Temp
°C
App
Temp
°C
Dew
Point
°C
Rel
Hum
%
Delta-T
°C
Wind Press
QNH
hPa
Press
MSL
hPa
Rain since
9am
mm
Dir  Spd
km/h
Gust
km/h
Spd
kts
Gust
kts
27/11:30pm 4.8 3.6 4.4 97 0.2 CALM 0 0 0 0 - - 0.0
27/11:00pm 5.6 4.5 4.9 95 0.3 CALM 0 0 0 0 - - 0.0
27/10:30pm 7.1 6.2 6.2 94 0.4 CALM 0 0 0 0 - - 0.0
27/10:00pm 7.9 7.2 7.0 94 0.4 CALM 0 0 0 0 - - 0.0
27/09:30pm 8.1 7.4 7.0 93 0.5 CALM 0 0 0 0 - - 0.0
27/09:00pm 8.3 7.6 7.1 92 0.6 CALM 0 0 0 0 - - 0.0
27/08:30pm 8.5 6.7 7.0 90 0.7 NW 6 7 3 4 - - 0.0
27/08:00pm 8.7 6.6 6.7 87 0.9 NW 7 13 4 7 - - 0.0
27/07:30pm 8.9 6.5 6.9 87 0.9 NW 9 13 5 7 - - 0.0
27/07:00pm 8.1 5.6 6.4 89 0.8 NW 9 11 5 6 - - 0.0
27/06:30pm 8.4 5.9 6.5 88 0.9 NW 9 11 5 6 - - 0.0
27/06:00pm 8.5 6.4 6.6 88 0.9 NNW 7 7 4 4 - - 0.0
27/05:30pm 8.7 6.7 6.3 85 1.1 NW 6 7 3 4 - - 0.0
27/05:00pm 9.6 6.7 6.3 80 1.5 W 11 15 6 8 - - 0.0
27/04:30pm 10.2 6.9 6.5 78 1.7 W 13 17 7 9 - - 0.0
27/04:00pm 10.5 7.6 6.5 76 1.9 W 11 17 6 9 - - 0.0
27/03:30pm 10.4 7.5 6.4 76 1.9 W 11 17 6 9 - - 0.0
27/03:00pm 10.4 7.0 6.0 74 2.0 W 13 20 7 11 - - 0.0
27/02:30pm 10.7 7.3 5.9 72 2.2 WNW 13 15 7 8 - - 0.0
27/02:00pm 10.7 8.1 6.3 74 2.1 W 9 15 5 8 - - 0.0
27/01:30pm 10.5 7.1 6.1 74 2.1 WNW 13 19 7 10 - - 0.0
27/01:00pm 9.8 6.4 5.8 76 1.8 WNW 13 19 7 10 - - 0.0
27/12:30pm 9.3 5.8 5.5 77 1.7 W 13 17 7 9 - - 0.0
27/12:00pm 9.6 6.4 5.0 73 2.1 WNW 11 17 6 9 - - 0.0
27/11:30am 8.6 5.5 5.4 80 1.4 WNW 11 17 6 9 - - 0.0
27/11:00am 7.6 4.3 4.7 82 1.3 NW 11 13 6 7 - - 0.0
27/10:30am 7.1 6.0 5.1 87 0.9 CALM 0 0 0 0 - - 0.0
27/10:00am 6.5 4.6 4.8 89 0.7 NW 4 7 2 4 - - 0.0
27/09:30am 5.9 3.2 5.8 99 0.0 N 9 13 5 7 - - 0.0
27/09:00am 4.6 2.1 4.5 99 0.0 N 7 9 4 5 - - 0.0
27/08:30am 4.2 2.1 4.1 99 0.0 N 4 9 2 5 - - 0.0
27/08:00am 3.7 2.3 3.6 99 0.0 CALM 0 0 0 0 - - 0.0
27/07:30am 3.5 2.1 3.4 99 0.0 CALM 0 0 0 0 - - 0.0
27/07:00am 3.4 2.0 3.3 99 0.0 CALM 0 0 0 0 - - 0.0
27/06:30am 3.1 1.6 3.0 99 0.0 CALM 0 0 0 0 - - 0.0
27/06:00am 2.9 1.4 2.8 99 0.0 CALM 0 0 0 0 - - 0.0
27/05:30am 2.7 1.1 2.6 99 0.0 CALM 0 0 0 0 - - 0.0
27/05:00am 2.6 0.6 2.5 99 0.0 NNE 2 7 1 4 - - 0.0
27/04:30am 2.5 0.9 2.4 99 0.0 CALM 0 0 0 0 - - 0.0
27/04:00am 2.3 0.7 2.2 99 0.0 CALM 0 0 0 0 - - 0.0
27/03:30am 2.1 0.4 2.0 99 0.0 CALM 0 0 0 0 - - 0.0
27/03:00am 1.8 0.1 1.7 99 0.0 CALM 0 0 0 0 - - 0.0
27/02:30am 1.8 0.1 1.7 99 0.0 CALM 0 0 0 0 - - 0.0
27/02:00am 2.2 0.5 2.1 99 0.0 CALM 0 0 0 0 - - 0.0
27/01:30am 2.8 1.2 2.7 99 0.0 CALM 0 0 0 0 - - 0.0
27/01:00am 3.1 0.5 3.0 99 0.0 NE 6 7 3 4 - - 0.0
27/12:30am 2.3 0.6 2.0 98 0.1 CALM 0 0 0 0 - - 0.0
27/12:00am 2.8 1.2 2.5 98 0.1 CALM 0 0 0 0 - - 0.0
 
Date/Time
EST
Temp
°C
App
Temp
°C
Dew
Point
°C
Rel
Hum
%
Delta-T
°C
Wind Press
QNH
hPa
Press
MSL
hPa
Rain since
9am
mm
Dir  Spd
km/h
Gust
km/h
Spd
kts
Gust
kts
26/11:30pm 3.3 1.8 3.0 98 0.1 CALM 0 0 0 0 - - 0.0
26/11:00pm 3.2 1.7 2.9 98 0.1 CALM 0 0 0 0 - - 0.0
26/10:30pm 3.2 1.7 2.9 98 0.1 CALM 0 0 0 0 - - 0.0
26/10:00pm 3.2 1.7 2.9 98 0.1 CALM 0 0 0 0 - - 0.0
26/09:30pm 3.3 1.8 3.0 98 0.1 CALM 0 0 0 0 - - 0.0
26/09:00pm 4.0 2.6 3.6 97 0.2 CALM 0 0 0 0 - - 0.0
26/08:30pm 3.8 2.4 3.4 97 0.2 CALM 0 0 0 0 - - 0.0
26/08:00pm 3.7 2.2 3.1 96 0.2 CALM 0 0 0 0 - - 0.0
26/07:30pm 4.0 2.6 3.3 95 0.3 CALM 0 0 0 0 - - 0.0
26/07:00pm 4.9 2.5 4.2 95 0.3 E 6 7 3 4 - - 0.0
26/06:30pm 5.2 2.6 4.3 94 0.4 ENE 7 9 4 5 - - 0.0
26/06:00pm 5.5 4.3 4.5 93 0.4 CALM 0 0 0 0 - - 0.0
26/05:30pm 5.7 4.4 3.9 88 0.8 CALM 0 0 0 0 - - 0.0
26/05:00pm 6.6 4.0 4.3 85 1.0 NNE 7 9 4 5 - - 0.0
26/04:30pm 7.2 4.2 4.3 82 1.3 NNE 9 13 5 7 - - 0.0
26/04:00pm 7.5 5.0 4.5 81 1.3 N 7 9 4 5 - - 0.0
26/03:30pm 7.6 5.0 4.4 80 1.4 N 7 9 4 5 - - 0.0
26/03:00pm 7.9 5.0 4.5 79 1.5 N 9 13 5 7 - - 0.0
26/02:30pm 7.8 4.5 4.6 80 1.4 NNW 11 13 6 7 - - 0.0
26/02:00pm 7.9 4.7 5.0 82 1.3 N 11 13 6 7 - - 0.0
26/01:30pm 8.0 4.8 5.3 83 1.2 N 11 15 6 8 - - 0.0
26/01:00pm 7.5 4.2 4.8 83 1.2 N 11 15 6 8 - - 0.0
26/12:30pm 7.4 4.6 5.0 85 1.1 NNE 9 13 5 7 - - 0.0
26/12:00pm 7.0 3.8 5.0 87 0.9 NE 11 17 6 9 - - 0.0
26/11:30am 6.0 2.7 4.6 91 0.6 NE 11 15 6 8 - - 0.0
26/11:00am 5.3 2.0 4.4 94 0.4 ENE 11 15 6 8 - - 0.0
26/10:30am 4.9 1.6 4.6 98 0.1 ENE 11 13 6 7 - - 0.0
26/10:00am 4.1 1.1 4.0 99 0.0 ENE 9 13 5 7 - - 0.0
26/09:30am 2.9 -0.3 2.8 99 0.0 NE 9 11 5 6 - - 0.0
26/09:00am 1.5 -1.4 1.4 99 0.0 E 6 7 3 4 - - 0.0
26/08:30am 0.4 -1.5 0.3 99 0.0 CALM 0 0 0 0 - - 0.0
26/08:00am -0.1 -2.1 -0.2 99 0.0 CALM 0 0 0 0 - - 0.0
26/07:30am -1.3 -3.5 -1.4 99 0.0 CALM 0 0 0 0 - - 0.0
26/07:00am -1.6 -3.8 -1.7 99 0.0 CALM 0 0 0 0 - - 0.0
26/06:30am -1.5 -3.7 -1.6 99 0.0 CALM 0 0 0 0 - - 0.0
26/06:00am -1.7 -4.0 -2.0 98 0.0 CALM 0 0 0 0 - - 0.0
26/05:30am -1.6 -3.8 -1.7 99 0.0 CALM 0 0 0 0 - - 0.0
26/05:00am -1.5 -3.7 -1.8 98 0.0 CALM 0 0 0 0 - - 0.0
26/04:30am -1.3 -3.5 -1.6 98 0.0 CALM 0 0 0 0 - - 0.0
26/04:00am -1.3 -3.5 -1.6 98 0.0 CALM 0 0 0 0 - - 0.0
26/03:30am -1.2 -3.4 -1.5 98 0.0 CALM 0 0 0 0 - - 0.0
26/03:00am -0.9 -3.1 -1.2 98 0.1 CALM 0 0 0 0 - - 0.0
26/02:30am -1.1 -3.3 -1.4 98 0.1 CALM 0 0 0 0 - - 0.0
26/02:00am -0.7 -2.8 -1.0 98 0.1 CALM 0 0 0 0 - - 0.0
26/01:30am -0.6 -2.7 -0.9 98 0.1 CALM 0 6 0 3 - - 0.0
26/01:00am -0.7 -2.8 -1.0 98 0.1 CALM 0 0 0 0 - - 0.0
26/12:30am -0.2 -2.3 -0.5 98 0.1 CALM 0 0 0 0 - - 0.0
26/12:00am 0.1 -1.9 -0.2 98 0.1 CALM 0 0 0 0 - - 0.0
 
Date/Time
EST
Temp
°C
App
Temp
°C
Dew
Point
°C
Rel
Hum
%
Delta-T
°C
Wind Press
QNH
hPa
Press
MSL
hPa
Rain since
9am
mm
Dir  Spd
km/h
Gust
km/h
Spd
kts
Gust
kts
25/11:30pm 1.0 -0.9 0.7 98 0.1 CALM 0 0 0 0 - - 0.0
25/11:00pm 0.5 -1.5 0.2 98 0.1 CALM 0 0 0 0 - - 0.0
25/10:30pm 0.8 -1.1 0.4 97 0.1 CALM 0 0 0 0 - - 0.0
25/10:00pm 1.3 -0.5 0.9 97 0.2 CALM 0 0 0 0 - - 0.0
25/09:30pm 1.4 -0.4 1.0 97 0.2 CALM 0 0 0 0 - - 0.0
25/09:00pm 2.0 0.2 1.4 96 0.2 CALM 0 0 0 0 - - 0.0
25/08:30pm 2.6 0.9 2.0 96 0.2 CALM 0 0 0 0 - - 0.0
25/08:00pm 3.2 1.6 2.5 95 0.3 CALM 0 0 0 0 - - 0.0
25/07:30pm 3.8 2.3 2.8 93 0.4 CALM 0 0 0 0 - - 0.0
25/07:00pm 5.3 4.0 4.1 92 0.5 CALM 0 0 0 0 - - 0.0
25/06:30pm 6.1 4.9 4.6 90 0.7 CALM 0 0 0 0 - - 0.0
25/06:00pm 6.6 5.4 4.4 86 1.0 CALM 0 2 0 1 - - 0.0
25/05:30pm 7.5 6.3 4.8 83 1.2 CALM 0 0 0 0 - - 0.0
25/05:00pm 8.0 6.8 4.4 78 1.6 CALM 0 0 0 0 - - 0.0
25/04:30pm 8.9 7.6 3.9 71 2.2 CALM 0 0 0 0 - - 0.0
25/04:00pm 9.9 7.2 3.6 65 2.8 SSW 7 9 4 5 - - 0.0
25/03:30pm 10.4 7.4 3.9 64 2.9 SSW 9 13 5 7 - - 0.0
25/03:00pm 9.6 7.0 3.1 64 2.8 SW 6 11 3 6 - - 0.0
25/02:30pm 9.7 6.6 3.7 66 2.6 SW 9 13 5 7 - - 0.0
25/02:00pm 9.9 7.3 4.3 68 2.5 SSW 7 15 4 8 - - 0.0
25/01:30pm 9.8 6.6 3.1 63 2.9 WSW 9 17 5 9 - - 0.0
25/01:00pm 9.5 6.0 3.7 67 2.5 WSW 11 19 6 10 - - 0.0
25/12:30pm 9.3 5.8 3.3 66 2.6 W 11 17 6 9 - - 0.0
25/12:00pm 8.8 5.4 4.2 73 2.0 W 11 17 6 9 - - 0.0
25/11:30am 7.8 4.7 3.8 76 1.7 WSW 9 15 5 8 - - 0.0
25/11:00am 7.4 4.0 4.2 80 1.4 W 11 17 6 9 - - 0.0
25/10:30am 6.7 3.3 4.2 84 1.1 W 11 15 6 8 - - 0.0
25/10:00am 5.7 2.5 3.0 83 1.1 WNW 9 11 5 6 - - 0.0
25/09:30am 4.4 2.8 2.4 87 0.8 CALM 0 0 0 0 - - 0.0
25/09:00am 2.7 1.0 2.0 95 0.3 CALM 0 0 0 0 - - 2.0
25/08:30am 0.9 -2.1 0.5 97 0.1 WNW 6 7 3 4 - - 2.0

Other Formats:

Comma delimited format used in spreadsheet applications
http://www.bom.gov.au/fwo/IDV60801/IDV60801.95836.axf

JavaScript Object Notation format (JSON) in row-major order
http://www.bom.gov.au/fwo/IDV60801/IDV60801.95836.json